createdAt,value
2019-05-22T00:00:31.065Z,99.90
2019-05-22T00:03:01.188Z,99.90
2019-05-22T00:05:32.578Z,99.90
2019-05-22T00:08:02.823Z,99.90
2019-05-22T00:10:33.784Z,99.90
2019-05-22T00:13:00.393Z,99.90
2019-05-22T00:15:28.934Z,99.90
2019-05-22T00:17:57.343Z,99.90
2019-05-22T00:20:25.727Z,99.90
2019-05-22T00:22:54.082Z,99.90
2019-05-22T00:25:24.123Z,99.90
2019-05-22T00:27:53.538Z,99.90
2019-05-22T00:30:22.038Z,99.90
2019-05-22T00:32:50.368Z,99.90
2019-05-22T00:35:18.593Z,99.90
2019-05-22T00:37:46.645Z,99.90
2019-05-22T00:40:14.970Z,99.90
2019-05-22T00:42:42.585Z,99.90
2019-05-22T00:45:12.676Z,99.90
2019-05-22T00:47:41.181Z,99.90
2019-05-22T00:50:11.884Z,99.90
2019-05-22T00:52:52.489Z,99.90
2019-05-22T00:55:39.277Z,99.90
2019-05-22T00:58:20.359Z,99.90
2019-05-22T01:00:48.875Z,99.90
2019-05-22T01:03:21.766Z,99.90
2019-05-22T01:05:48.390Z,99.90
2019-05-22T01:08:15.870Z,99.90
2019-05-22T01:10:45.497Z,99.90
2019-05-22T01:13:13.606Z,99.90
2019-05-22T01:15:40.650Z,99.90
2019-05-22T01:18:07.523Z,99.90
2019-05-22T01:20:36.539Z,99.90
2019-05-22T01:23:06.052Z,99.90
2019-05-22T01:25:34.589Z,99.90
2019-05-22T01:28:01.416Z,99.90
2019-05-22T01:30:38.677Z,99.90
2019-05-22T01:33:07.086Z,99.90
2019-05-22T01:35:36.307Z,99.90
2019-05-22T01:38:03.577Z,99.90
2019-05-22T01:40:41.020Z,99.90
2019-05-22T01:43:10.134Z,99.90
2019-05-22T01:45:38.554Z,99.90
2019-05-22T01:48:16.266Z,99.90
2019-05-22T01:50:48.338Z,99.90
2019-05-22T01:53:19.655Z,99.90
2019-05-22T01:55:47.765Z,99.90
2019-05-22T01:58:15.875Z,99.90
2019-05-22T02:00:43.702Z,99.90
2019-05-22T02:03:11.102Z,99.90
2019-05-22T02:05:39.727Z,99.90
2019-05-22T02:08:08.781Z,99.90
2019-05-22T02:10:39.791Z,99.90
2019-05-22T02:13:09.311Z,99.90
2019-05-22T02:15:37.164Z,99.90
2019-05-22T02:18:13.665Z,99.90
2019-05-22T02:20:42.212Z,99.90
2019-05-22T02:23:09.123Z,99.90
2019-05-22T02:25:37.224Z,99.90
2019-05-22T02:28:05.834Z,99.90
2019-05-22T02:30:36.153Z,99.90
2019-05-22T02:33:04.108Z,99.90
2019-05-22T02:35:31.627Z,99.90
2019-05-22T02:37:58.332Z,99.90
2019-05-22T02:40:29.287Z,99.90
2019-05-22T02:42:57.493Z,99.90
2019-05-22T02:45:25.557Z,99.90
2019-05-22T02:47:52.666Z,99.90
2019-05-22T02:50:19.575Z,99.90
2019-05-22T02:52:46.522Z,99.90
2019-05-22T02:55:13.241Z,99.90
2019-05-22T02:57:41.244Z,99.90
2019-05-22T03:00:10.695Z,99.90
2019-05-22T03:02:51.610Z,99.90
2019-05-22T03:05:18.499Z,99.90
2019-05-22T03:07:47.532Z,99.90
2019-05-22T03:10:15.771Z,99.90
2019-05-22T03:12:42.592Z,99.90
2019-05-22T03:15:13.760Z,99.90
2019-05-22T03:17:42.769Z,99.90
2019-05-22T03:20:16.210Z,99.90
2019-05-22T03:23:18.760Z,99.90
2019-05-22T03:25:46.313Z,99.90
2019-05-22T03:28:13.604Z,99.90
2019-05-22T03:30:42.253Z,99.90
2019-05-22T03:33:10.105Z,99.90
2019-05-22T03:35:43.670Z,99.90
2019-05-22T03:38:12.142Z,99.90
2019-05-22T03:40:39.161Z,99.90
2019-05-22T03:43:27.837Z,99.90
2019-05-22T03:45:58.338Z,99.90
2019-05-22T03:48:31.928Z,99.90
2019-05-22T03:51:12.378Z,99.90
2019-05-22T03:53:39.361Z,99.90
2019-05-22T03:56:05.966Z,99.90
2019-05-22T03:58:32.462Z,99.90
2019-05-22T04:01:01.154Z,99.90
2019-05-22T04:03:28.857Z,99.90
2019-05-22T04:05:56.184Z,99.90
2019-05-22T04:08:25.172Z,99.90
2019-05-22T04:11:01.600Z,99.90
2019-05-22T04:13:30.753Z,99.90
2019-05-22T04:15:59.211Z,99.90
2019-05-22T04:18:26.642Z,99.90
2019-05-22T04:20:56.491Z,99.90
2019-05-22T04:23:23.810Z,99.90
2019-05-22T04:25:53.279Z,99.90
2019-05-22T04:28:20.202Z,99.90
2019-05-22T04:30:48.818Z,99.90
2019-05-22T04:33:17.040Z,99.90
2019-05-22T04:35:44.398Z,99.90
2019-05-22T04:38:11.710Z,99.90
2019-05-22T04:40:42.018Z,99.90
2019-05-22T04:43:10.189Z,99.90
2019-05-22T04:45:37.491Z,99.90
2019-05-22T04:48:04.906Z,99.90
2019-05-22T04:50:32.670Z,99.90
2019-05-22T04:53:01.147Z,99.90
2019-05-22T04:55:29.645Z,99.90
2019-05-22T04:57:58.703Z,99.90
2019-05-22T05:00:27.822Z,99.90
2019-05-22T05:02:55.023Z,99.90
2019-05-22T05:05:24.492Z,99.90
2019-05-22T05:07:51.750Z,99.90
2019-05-22T05:10:18.913Z,99.90
2019-05-22T05:12:45.580Z,99.90
2019-05-22T05:15:12.490Z,99.90
2019-05-22T05:17:40.220Z,99.90
2019-05-22T05:20:21.694Z,99.70
2019-05-22T05:22:39.696Z,99.50
2019-05-22T05:25:06.802Z,99.30
2019-05-22T05:27:33.515Z,99.20
2019-05-22T05:30:00.112Z,99.00
2019-05-22T05:32:27.113Z,98.80
2019-05-22T05:34:57.372Z,98.10
2019-05-22T05:37:25.713Z,98.90
2019-05-22T05:39:58.891Z,99.30
2019-05-22T05:42:26.249Z,98.90
2019-05-22T05:44:53.013Z,98.60
2019-05-22T05:47:20.372Z,98.20
2019-05-22T05:49:47.780Z,98.10
2019-05-22T05:52:15.293Z,97.40
2019-05-22T05:54:43.716Z,96.20
2019-05-22T05:57:32.759Z,96.20
2019-05-22T06:00:01.789Z,97.00
2019-05-22T06:02:28.686Z,97.30
2019-05-22T06:04:55.223Z,96.50
2019-05-22T06:07:22.150Z,97.00
2019-05-22T06:09:52.422Z,96.40
2019-05-22T06:12:19.256Z,96.10
2019-05-22T06:14:46.674Z,95.80
2019-05-22T06:17:39.933Z,95.60
2019-05-22T06:20:16.766Z,95.50
2019-05-22T06:22:47.900Z,95.80
2019-05-22T06:25:15.191Z,94.90
2019-05-22T06:27:45.573Z,94.10
2019-05-22T06:30:16.587Z,94.00
2019-05-22T06:33:11.855Z,94.70
2019-05-22T06:35:39.930Z,94.70
2019-05-22T06:38:34.818Z,94.20
2019-05-22T06:41:01.886Z,94.90
2019-05-22T06:43:33.477Z,94.40
2019-05-22T06:46:00.230Z,93.30
2019-05-22T06:48:26.748Z,93.50
2019-05-22T06:50:53.344Z,92.60
2019-05-22T06:53:20.299Z,93.30
2019-05-22T06:55:48.500Z,92.90
2019-05-22T06:58:15.604Z,92.20
2019-05-22T07:00:42.755Z,91.60
2019-05-22T07:03:12.887Z,92.30
2019-05-22T07:05:41.081Z,92.40
2019-05-22T07:08:08.958Z,91.80
2019-05-22T07:10:36.405Z,92.10
2019-05-22T07:13:04.899Z,91.90
2019-05-22T07:15:35.158Z,91.10
2019-05-22T07:18:02.859Z,91.60
2019-05-22T07:20:32.386Z,91.30
2019-05-22T07:23:01.845Z,90.80
2019-05-22T07:25:30.576Z,91.20
2019-05-22T07:27:57.132Z,90.50
2019-05-22T07:30:23.837Z,89.10
2019-05-22T07:32:50.845Z,89.30
2019-05-22T07:35:18.085Z,89.80
2019-05-22T07:37:46.150Z,90.00
2019-05-22T07:40:13.654Z,90.20
2019-05-22T07:42:40.117Z,88.40
2019-05-22T07:45:07.615Z,89.20
2019-05-22T07:47:35.248Z,87.90
2019-05-22T07:50:04.419Z,88.10
2019-05-22T07:52:31.955Z,88.40
2019-05-22T07:54:59.722Z,90.00
2019-05-22T07:57:27.078Z,85.90
2019-05-22T07:59:53.683Z,87.50
2019-05-22T08:02:24.517Z,85.60
2019-05-22T08:04:51.172Z,85.80
2019-05-22T08:07:20.247Z,85.40
2019-05-22T08:09:47.360Z,82.50
2019-05-22T08:12:15.390Z,82.40
2019-05-22T08:14:43.890Z,83.70
2019-05-22T08:17:11.859Z,82.10
2019-05-22T08:19:38.984Z,79.60
2019-05-22T08:22:07.650Z,79.30
2019-05-22T08:24:34.221Z,76.40
2019-05-22T08:27:00.927Z,75.10
2019-05-22T08:29:28.087Z,74.50
2019-05-22T08:31:54.859Z,75.30
2019-05-22T08:34:22.462Z,76.10
2019-05-22T08:36:49.131Z,76.30
2019-05-22T08:39:15.964Z,75.00
2019-05-22T08:41:43.930Z,76.50
2019-05-22T08:44:16.830Z,75.00
2019-05-22T08:46:40.124Z,72.80
2019-05-22T08:49:08.313Z,73.50
2019-05-22T08:51:35.079Z,71.80
2019-05-22T08:54:05.804Z,72.70
2019-05-22T08:56:37.286Z,72.80
2019-05-22T08:59:18.918Z,74.50
2019-05-22T09:01:34.101Z,74.00
2019-05-22T09:04:01.272Z,71.50
2019-05-22T09:06:28.174Z,69.90
2019-05-22T09:08:54.674Z,70.80
2019-05-22T09:11:21.224Z,70.20
2019-05-22T09:13:47.926Z,66.90
2019-05-22T09:16:15.633Z,66.70
2019-05-22T09:18:42.984Z,69.30
2019-05-22T09:21:09.991Z,64.10
2019-05-22T09:23:37.307Z,62.60
2019-05-22T09:26:06.415Z,61.10
2019-05-22T09:28:33.224Z,60.30
2019-05-22T09:30:59.914Z,60.50
2019-05-22T09:33:26.652Z,59.00
2019-05-22T09:35:53.257Z,59.00
2019-05-22T09:38:20.260Z,59.10
2019-05-22T09:40:48.090Z,56.70
2019-05-22T09:43:14.702Z,56.70
2019-05-22T09:45:41.385Z,58.80
2019-05-22T09:48:08.592Z,61.00
2019-05-22T09:50:35.798Z,63.00
2019-05-22T09:53:04.173Z,60.50
2019-05-22T09:55:31.469Z,57.30
2019-05-22T09:57:58.463Z,57.10
2019-05-22T10:00:26.897Z,54.60
2019-05-22T10:02:54.201Z,55.10
2019-05-22T10:05:21.410Z,54.00
2019-05-22T10:07:59.980Z,53.90
2019-05-22T10:10:18.421Z,53.10
2019-05-22T10:12:45.003Z,52.30
2019-05-22T10:15:13.900Z,55.90
2019-05-22T10:17:44.137Z,55.00
2019-05-22T10:20:11.334Z,53.40
2019-05-22T10:22:40.002Z,54.00
2019-05-22T10:25:15.841Z,53.20
2019-05-22T10:27:36.369Z,54.20
2019-05-22T10:30:11.424Z,55.80
2019-05-22T10:32:37.944Z,53.70
2019-05-22T10:35:07.055Z,53.50
2019-05-22T10:37:34.007Z,53.50
2019-05-22T10:40:01.124Z,53.50
2019-05-22T10:42:28.134Z,54.90
2019-05-22T10:44:54.783Z,53.40
2019-05-22T10:47:21.893Z,52.90
2019-05-22T10:49:48.598Z,53.00
2019-05-22T10:52:16.264Z,53.40
2019-05-22T10:54:43.591Z,51.70
2019-05-22T10:57:10.959Z,52.90
2019-05-22T10:59:37.572Z,51.00
2019-05-22T11:02:06.079Z,48.90
2019-05-22T11:04:33.940Z,49.70
2019-05-22T11:07:01.232Z,50.80
2019-05-22T11:09:29.058Z,51.50
2019-05-22T11:11:56.783Z,52.10
2019-05-22T11:14:24.123Z,51.60
2019-05-22T11:16:51.233Z,48.80
2019-05-22T11:19:17.908Z,46.70
2019-05-22T11:21:45.004Z,47.60
2019-05-22T11:24:12.020Z,49.40
2019-05-22T11:26:39.578Z,49.70
2019-05-22T11:29:06.798Z,46.60
2019-05-22T11:31:35.059Z,45.30
2019-05-22T11:34:01.716Z,45.60
2019-05-22T11:36:29.026Z,48.50
2019-05-22T11:38:55.540Z,47.00
2019-05-22T11:41:22.207Z,43.60
2019-05-22T11:43:48.862Z,42.50
2019-05-22T11:46:16.544Z,42.60
2019-05-22T11:48:43.397Z,40.00
2019-05-22T11:51:10.141Z,42.80
2019-05-22T11:53:37.327Z,42.90
2019-05-22T11:56:04.255Z,42.40
2019-05-22T11:58:30.903Z,44.10
2019-05-22T12:00:58.201Z,43.40
2019-05-22T12:03:25.443Z,43.70
2019-05-22T12:05:53.585Z,41.80
2019-05-22T12:08:20.887Z,42.60
2019-05-22T12:10:48.621Z,41.30
2019-05-22T12:13:16.368Z,39.40
2019-05-22T12:15:43.043Z,36.90
2019-05-22T12:18:10.221Z,36.70
2019-05-22T12:20:37.452Z,35.70
2019-05-22T12:23:04.728Z,35.40
2019-05-22T12:25:31.670Z,37.80
2019-05-22T12:27:58.939Z,37.30
2019-05-22T12:30:25.600Z,36.10
2019-05-22T12:32:53.442Z,38.20
2019-05-22T12:35:20.792Z,45.20
2019-05-22T12:37:48.460Z,47.80
2019-05-22T12:40:18.666Z,48.50
2019-05-22T12:42:46.557Z,49.40
2019-05-22T12:45:15.919Z,48.90
2019-05-22T12:47:42.815Z,44.30
2019-05-22T12:50:15.324Z,41.60
2019-05-22T12:52:47.281Z,39.60
2019-05-22T12:55:15.997Z,39.00
2019-05-22T12:57:43.151Z,37.20
2019-05-22T13:00:10.788Z,37.90
2019-05-22T13:02:42.182Z,38.40
2019-05-22T13:05:07.454Z,38.20
2019-05-22T13:07:34.497Z,39.20
2019-05-22T13:10:02.853Z,38.90
2019-05-22T13:12:29.635Z,39.10
2019-05-22T13:15:08.884Z,39.20
2019-05-22T13:17:26.541Z,39.70
2019-05-22T13:19:54.735Z,39.40
2019-05-22T13:22:26.153Z,40.20
2019-05-22T13:24:54.371Z,39.90
2019-05-22T13:27:22.109Z,37.80
2019-05-22T13:29:49.927Z,41.20
2019-05-22T13:32:16.892Z,43.70
2019-05-22T13:34:43.850Z,43.30
2019-05-22T13:37:10.611Z,40.20
2019-05-22T13:39:37.684Z,40.70
2019-05-22T13:42:04.415Z,39.70
2019-05-22T13:44:31.051Z,37.40
2019-05-22T13:46:58.310Z,37.90
2019-05-22T13:49:25.942Z,36.40
2019-05-22T13:51:52.586Z,35.90
2019-05-22T13:54:19.718Z,34.00
2019-05-22T13:56:46.458Z,34.80
2019-05-22T13:59:13.116Z,36.20
2019-05-22T14:01:39.816Z,35.70
2019-05-22T14:04:07.355Z,34.10
2019-05-22T14:06:34.876Z,39.30
2019-05-22T14:09:01.597Z,38.90
2019-05-22T14:11:28.962Z,37.70
2019-05-22T14:13:56.737Z,36.30
2019-05-22T14:16:23.281Z,36.90
2019-05-22T14:18:49.961Z,37.50
2019-05-22T14:21:16.562Z,36.80
2019-05-22T14:23:43.278Z,36.70
2019-05-22T14:26:10.011Z,37.70
2019-05-22T14:28:37.446Z,36.70
2019-05-22T14:31:04.804Z,35.80
2019-05-22T14:33:31.514Z,39.10
2019-05-22T14:35:59.639Z,41.20
2019-05-22T14:38:27.001Z,38.90
2019-05-22T14:40:54.091Z,36.80
2019-05-22T14:43:20.623Z,37.10
2019-05-22T14:45:47.478Z,37.70
2019-05-22T14:48:15.230Z,39.50
2019-05-22T14:50:41.843Z,40.10
2019-05-22T14:53:10.096Z,40.30
2019-05-22T14:55:38.499Z,39.50
2019-05-22T14:58:06.156Z,40.10
2019-05-22T15:00:34.584Z,38.50
2019-05-22T15:03:02.643Z,37.80
2019-05-22T15:05:29.662Z,36.80
2019-05-22T15:07:56.308Z,35.70
2019-05-22T15:10:24.850Z,37.40
2019-05-22T15:12:52.166Z,37.30
2019-05-22T15:15:21.638Z,36.30
2019-05-22T15:17:48.180Z,35.00
2019-05-22T15:20:23.359Z,37.20
2019-05-22T15:22:50.561Z,37.90
2019-05-22T15:25:17.467Z,38.00
2019-05-22T15:27:44.875Z,38.40
2019-05-22T15:30:12.905Z,38.70
2019-05-22T15:32:39.565Z,37.30
2019-05-22T15:35:08.844Z,36.90
2019-05-22T15:37:36.008Z,36.90
2019-05-22T15:40:05.611Z,37.20
2019-05-22T15:42:41.780Z,36.40
2019-05-22T15:45:12.353Z,38.90
2019-05-22T15:47:53.693Z,39.20
2019-05-22T15:50:11.796Z,38.80
2019-05-22T15:52:40.132Z,37.60
2019-05-22T15:55:10.441Z,37.00
2019-05-22T15:57:41.084Z,38.70
2019-05-22T16:00:11.535Z,39.50
2019-05-22T16:02:41.053Z,40.10
2019-05-22T16:05:07.966Z,40.10
2019-05-22T16:07:39.272Z,40.30
2019-05-22T16:10:06.946Z,40.10
2019-05-22T16:12:34.653Z,40.60
2019-05-22T16:15:05.736Z,40.50
2019-05-22T16:17:32.666Z,40.30
2019-05-22T16:19:59.917Z,41.00
2019-05-22T16:22:46.535Z,42.00
2019-05-22T16:25:14.777Z,41.80
2019-05-22T16:27:43.782Z,43.20
2019-05-22T16:30:12.442Z,46.00
2019-05-22T16:32:40.354Z,47.70
2019-05-22T16:35:07.261Z,49.20
2019-05-22T16:37:33.979Z,50.20
2019-05-22T16:40:01.511Z,50.80
2019-05-22T16:42:31.068Z,50.30
2019-05-22T16:44:57.767Z,51.00
2019-05-22T16:47:25.174Z,50.20
2019-05-22T16:49:52.626Z,50.90
2019-05-22T16:52:21.318Z,50.70
2019-05-22T16:54:48.686Z,51.80
2019-05-22T16:57:15.609Z,50.70
2019-05-22T16:59:43.709Z,51.60
2019-05-22T17:02:13.577Z,52.40
2019-05-22T17:04:40.538Z,51.90
2019-05-22T17:07:07.452Z,52.50
2019-05-22T17:09:34.162Z,53.00
2019-05-22T17:12:04.641Z,53.40
2019-05-22T17:14:32.009Z,53.80
2019-05-22T17:16:58.768Z,53.90
2019-05-22T17:19:27.792Z,54.20
2019-05-22T17:21:54.586Z,54.40
2019-05-22T17:24:22.009Z,54.40
2019-05-22T17:26:51.416Z,54.60
2019-05-22T17:29:18.374Z,55.50
2019-05-22T17:31:44.928Z,55.30
2019-05-22T17:34:29.729Z,54.90
2019-05-22T17:36:57.344Z,55.70
2019-05-22T17:39:26.618Z,55.40
2019-05-22T17:41:56.331Z,55.40
2019-05-22T17:44:23.576Z,55.10
2019-05-22T17:46:52.546Z,56.20
2019-05-22T17:49:19.882Z,55.30
2019-05-22T17:51:47.200Z,59.00
2019-05-22T17:54:14.105Z,69.20
2019-05-22T17:56:40.886Z,80.40
2019-05-22T17:59:07.528Z,84.10
2019-05-22T18:01:35.031Z,85.70
2019-05-22T18:04:02.485Z,88.20
2019-05-22T18:06:29.798Z,89.50
2019-05-22T18:08:56.439Z,90.20
2019-05-22T18:11:23.084Z,90.30
2019-05-22T18:13:57.126Z,90.60
2019-05-22T18:16:24.139Z,91.20
2019-05-22T18:18:51.597Z,91.70
2019-05-22T18:21:18.889Z,91.70
2019-05-22T18:23:45.614Z,91.60
2019-05-22T18:26:12.888Z,91.80
2019-05-22T18:28:39.918Z,92.00
2019-05-22T18:31:06.442Z,92.40
2019-05-22T18:33:33.336Z,92.60
2019-05-22T18:35:59.921Z,92.80
2019-05-22T18:38:26.959Z,92.70
2019-05-22T18:40:53.916Z,92.90
2019-05-22T18:43:22.991Z,92.90
2019-05-22T18:45:49.821Z,93.00
2019-05-22T18:48:16.460Z,93.40
2019-05-22T18:50:43.669Z,93.70
2019-05-22T18:53:10.180Z,94.00
2019-05-22T18:55:36.838Z,94.00
2019-05-22T18:58:03.543Z,94.30
2019-05-22T19:00:32.210Z,94.50
2019-05-22T19:02:59.363Z,94.50
2019-05-22T19:05:29.587Z,94.50
2019-05-22T19:07:56.642Z,94.60
2019-05-22T19:10:24.001Z,94.60
2019-05-22T19:12:51.276Z,94.70
2019-05-22T19:15:19.618Z,94.80
2019-05-22T19:17:48.405Z,95.00
2019-05-22T19:20:16.628Z,95.20
2019-05-22T19:22:58.430Z,95.20
2019-05-22T19:25:12.815Z,95.40
2019-05-22T19:27:40.070Z,95.50
2019-05-22T19:30:07.896Z,95.80
2019-05-22T19:32:35.424Z,95.90
2019-05-22T19:35:04.103Z,96.10
2019-05-22T19:37:31.168Z,95.90
2019-05-22T19:39:57.751Z,95.90
2019-05-22T19:42:25.131Z,95.90
2019-05-22T19:44:52.458Z,96.40
2019-05-22T19:47:21.558Z,96.80
2019-05-22T19:49:48.228Z,97.30
2019-05-22T19:52:15.471Z,97.90
2019-05-22T19:54:42.774Z,98.00
2019-05-22T19:57:11.250Z,98.50
2019-05-22T19:59:38.694Z,99.00
2019-05-22T20:02:06.992Z,99.50
2019-05-22T20:04:34.739Z,99.70
2019-05-22T20:07:01.991Z,99.90
2019-05-22T20:09:29.873Z,99.90
2019-05-22T20:11:56.727Z,99.90
2019-05-22T20:14:24.149Z,99.90
2019-05-22T20:16:50.774Z,99.90
2019-05-22T20:19:17.469Z,99.90
2019-05-22T20:21:44.059Z,99.90
2019-05-22T20:24:11.380Z,99.90
2019-05-22T20:26:38.116Z,99.90
2019-05-22T20:29:06.321Z,99.90
2019-05-22T20:31:33.701Z,99.90
2019-05-22T20:34:00.317Z,99.90
2019-05-22T20:36:28.524Z,99.90
2019-05-22T20:38:55.819Z,99.90
2019-05-22T20:41:23.326Z,99.90
2019-05-22T20:43:50.149Z,99.90
2019-05-22T20:46:18.406Z,99.90
2019-05-22T20:48:46.709Z,99.90
2019-05-22T20:51:15.152Z,99.90
2019-05-22T20:53:53.589Z,99.90
2019-05-22T20:56:13.629Z,99.90
2019-05-22T20:58:42.625Z,99.90
2019-05-22T21:01:10.396Z,99.90
2019-05-22T21:03:37.596Z,99.90
2019-05-22T21:06:08.127Z,99.90
2019-05-22T21:08:36.709Z,99.90
2019-05-22T21:11:04.187Z,99.90
2019-05-22T21:13:31.764Z,99.90
2019-05-22T21:15:58.420Z,99.90
2019-05-22T21:18:28.537Z,99.90
2019-05-22T21:20:55.703Z,99.90
2019-05-22T21:23:24.105Z,99.90
2019-05-22T21:25:51.036Z,99.90
2019-05-22T21:28:18.416Z,99.90
2019-05-22T21:30:46.666Z,99.90
2019-05-22T21:33:14.391Z,99.90
2019-05-22T21:35:41.021Z,99.90
2019-05-22T21:38:09.164Z,99.90
2019-05-22T21:40:36.095Z,99.90
2019-05-22T21:43:03.873Z,99.90
2019-05-22T21:45:31.738Z,99.90
2019-05-22T21:47:59.461Z,99.90
2019-05-22T21:50:26.467Z,99.90
2019-05-22T21:52:53.151Z,99.90
2019-05-22T21:55:21.581Z,99.90
2019-05-22T21:57:48.502Z,99.90
2019-05-22T22:00:26.876Z,99.90
2019-05-22T22:02:55.643Z,99.90
2019-05-22T22:05:24.343Z,99.90
2019-05-22T22:07:51.568Z,99.90
2019-05-22T22:10:20.414Z,99.90
2019-05-22T22:12:47.407Z,99.90
2019-05-22T22:15:14.562Z,99.90
2019-05-22T22:17:42.779Z,99.90
2019-05-22T22:20:11.633Z,99.90
2019-05-22T22:22:38.557Z,99.90
2019-05-22T22:25:06.452Z,99.90
2019-05-22T22:27:33.786Z,99.90
2019-05-22T22:30:02.923Z,99.90
2019-05-22T22:32:30.717Z,99.90
2019-05-22T22:34:57.197Z,99.90
2019-05-22T22:37:24.318Z,99.90
2019-05-22T22:39:54.741Z,99.90
2019-05-22T22:42:24.380Z,99.90
2019-05-22T22:44:53.796Z,99.90
2019-05-22T22:47:25.305Z,99.90
2019-05-22T22:49:54.818Z,99.90
2019-05-22T22:52:23.364Z,99.90
2019-05-22T22:54:51.188Z,99.90
2019-05-22T22:57:19.800Z,99.90
2019-05-22T22:59:46.947Z,99.90
2019-05-22T23:02:17.799Z,99.90
2019-05-22T23:04:46.334Z,99.90
2019-05-22T23:07:15.773Z,99.90
2019-05-22T23:09:44.009Z,99.90
2019-05-22T23:12:12.504Z,99.90
2019-05-22T23:14:44.433Z,99.90
2019-05-22T23:17:11.436Z,99.90
2019-05-22T23:20:31.128Z,99.90
2019-05-22T23:23:35.388Z,99.90
2019-05-22T23:26:03.681Z,99.90
2019-05-22T23:28:34.563Z,99.90
2019-05-22T23:31:00.993Z,99.90
2019-05-22T23:33:30.321Z,99.90
2019-05-22T23:35:57.967Z,99.90
2019-05-22T23:38:25.518Z,99.90
2019-05-22T23:40:53.863Z,99.90
2019-05-22T23:43:21.734Z,99.90
2019-05-22T23:45:48.738Z,99.90
2019-05-22T23:48:17.159Z,99.90
2019-05-22T23:50:46.889Z,99.90
2019-05-22T23:53:15.820Z,99.90
2019-05-22T23:55:43.663Z,99.90
2019-05-22T23:58:12.988Z,99.90
